ADDS METAR Data INFO
IDs: Format: Raw Decoded Include TAF

Data at: 0503 UTC 21 Feb 2018

KLCG 201515Z AUTO 31015G23KT 10SM SCT012 SCT017 BKN110 M13/M16 A3008 RMK AO2 T11301162
KLCG 201455Z AUTO 31014G22KT 10SM BKN015 M13/M16 A3007 RMK AO2 T11341163
KLCG 201435Z AUTO 31016G20KT 10SM SCT010 SCT017 BKN055 M13/M16 A3006 RMK AO2 T11321161
KLCG 201415Z AUTO 31011KT 10SM BKN055 M13/M16 A3007 RMK AO2 T11341162
KLCG 201355Z AUTO 30010KT 10SM CLR M14/M16 A3005 RMK AO2 T11361165
KLCG 201335Z AUTO 31010KT 10SM CLR M14/M16 A3002 RMK AO2 T11371161
KLCG 201315Z AUTO 32011G18KT 10SM SCT009 SCT013 SCT045 M14/M16 A2997 RMK AO2 T11361162
KLCG 201255Z AUTO 32011KT 10SM SCT038 BKN045 M13/M16 A2998 RMK AO2 T11311156
KLCG 201235Z AUTO 32011G20KT 10SM BKN038 OVC045 M13/M15 A2999 RMK AO2 T11271150
KLCG 201215Z AUTO 31016G20KT 10SM OVC038 M12/M15 A2997 RMK AO2 T11251150
KLCG 201155Z AUTO 32011G19KT 10SM OVC038 M12/M14 A2997 RMK AO2 T11171140 11083 21117
KLCG 201135Z AUTO 32011G15KT 10SM OVC038 M11/M13 A2998 RMK AO2 T11141134
KLCG 201115Z AUTO 31010G15KT 10SM OVC036 M11/M13 A2996 RMK AO2 T11111128
KLCG 201055Z AUTO 32010KT 10SM OVC036 M11/M13 A2993 RMK AO2 T11101126
KLCG 201035Z AUTO 32011KT 10SM OVC036 M11/M12 A2993 RMK AO2 T11081125
KLCG 201015Z AUTO 33009KT 10SM OVC036 M11/M12 A2993 RMK AO2 LTG DSNT SE T11061120
KLCG 200955Z AUTO 34011KT 10SM OVC034 M10/M12 A2992 RMK AO2 T11051118
KLCG 200935Z AUTO 34008KT 10SM SCT012 SCT028 OVC034 M10/M12 A2991 RMK AO2 T11031118
KLCG 200915Z AUTO 33012G15KT 10SM -SN OVC028 M10/M12 A2991 RMK AO2 T11021116
KLCG 200855Z AUTO 34011KT 7SM -SN OVC024 M10/M11 A2991 RMK AO2 T11001115
KLCG 200835Z AUTO 33010KT 10SM -SN OVC022 M10/M11 A2991 RMK AO2 T10961108
KLCG 200815Z AUTO 32010KT 10SM -SN SCT013 OVC022 M09/M10 A2991 RMK AO2 T10941104
KLCG 200755Z AUTO 32008KT 7SM -SN BKN015 OVC020 M09/M10 A2990 RMK AO2 T10911100
KLCG 200735Z AUTO 33008KT 10SM OVC016 M09/M10 A2992 RMK AO2 T10861096
KLCG 200715Z AUTO 33006KT 10SM BKN011 OVC021 M08/M09 A2990 RMK AO2 LTG DSNT E T10851090
KLCG 200655Z AUTO 34008KT 7SM -SN SCT011 OVC019 M08/M09 A2987 RMK AO2 T10851090
KLCG 200635Z AUTO 34008KT 1 1/2SM -SN BKN008 OVC014 M08/M09 A2987 RMK AO2 T10851090
KLCG 200615Z AUTO 34009KT 2SM -SN OVC006 M08/M09 A2985 RMK AO2 T10851090
KLCG 200555Z AUTO 35009KT 5SM -SN OVC006 M08/M09 A2983 RMK AO2 LTG DSNT SE T10851090 11075 21085 410251085
KLCG 200535Z AUTO 35009KT 7SM OVC006 M08/M09 A2983 RMK AO2 LTG DSNT SE T10831088
KLCG 200515Z AUTO 34010KT 7SM OVC006 M08/M09 A2986 RMK AO2 T10831088
KLCG 200455Z AUTO 36009KT 7SM OVC006 M08/M09 A2985 RMK AO2 T10811086
KLCG 200435Z AUTO 34009KT 7SM OVC006 M08/M08 A2989 RMK AO2 T10801085
KLCG 200415Z AUTO 34007KT 10SM OVC008 M08/M08 A2991 RMK AO2 T10801085
KLCG 200355Z AUTO 34007KT 10SM OVC008 M08/M08 A2990 RMK AO2 T10801085
KLCG 200335Z AUTO 36005KT 10SM OVC008 M08/M08 A2989 RMK AO2 T10801085
KLCG 200315Z AUTO 01009KT 10SM OVC008 M08/M08 A2986 RMK AO2 T10801085
KLCG 200255Z AUTO 36008KT 10SM OVC008 M08/M08 A2988 RMK AO2 T10801085
KLCG 200235Z AUTO 01009KT 10SM OVC008 M08/M09 A2986 RMK AO2 T10811086
KLCG 200215Z AUTO 35007KT 10SM OVC008 M08/M08 A2988 RMK AO2 LTG DSNT SE T10801085
KLCG 200155Z AUTO 01008KT 10SM OVC008 M08/M08 A2989 RMK AO2 T10801085
KLCG 200135Z AUTO 36006KT 10SM OVC008 M08/M08 A2989 RMK AO2 T10781083
KLCG 200115Z AUTO 36009KT 10SM OVC008 M08/M08 A2988 RMK AO2 T10771082
KLCG 200055Z AUTO 36009KT 10SM OVC008 M08/M08 A2988 RMK AO2 T10771082
KLCG 200035Z AUTO 01009KT 10SM OVC008 M08/M08 A2986 RMK AO2 T10771081
KLCG 200015Z AUTO 36010KT 10SM OVC008 M08/M08 A2987 RMK AO2 T10761080
KLCG 192355Z AUTO 36010KT 10SM OVC008 M07/M08 A2986 RMK AO2 T10751080 11072 21080
KLCG 192335Z AUTO 36010KT 10SM OVC008 M07/M08 A2987 RMK AO2 T10741078
KLCG 192315Z AUTO 36009KT 10SM OVC008 M07/M08 A2986 RMK AO2 LTG DSNT SE T10721077
KLCG 192255Z AUTO 01009KT 7SM OVC008 M07/M08 A2984 RMK AO2 T10721077
KLCG 192235Z AUTO 36008KT 10SM OVC008 M07/M08 A2985 RMK AO2 T10721077
KLCG 192215Z AUTO 01010KT 10SM OVC008 M07/M08 A2984 RMK AO2 T10731077
KLCG 192155Z AUTO 01010KT 10SM OVC010 M07/M08 A2985 RMK AO2 T10751080
KLCG 192135Z AUTO 35009G15KT 10SM OVC010 M07/M08 A2985 RMK AO2 T10751080
KLCG 192115Z AUTO 35012KT 10SM OVC010 M08/M08 A2984 RMK AO2 T10771081
KLCG 192055Z AUTO 36008KT 10SM OVC010 M08/M08 A2984 RMK AO2 T10781083
KLCG 192035Z AUTO 35010KT 10SM OVC010 M08/M08 A2984 RMK AO2 T10791084
KLCG 192015Z AUTO 34013KT 7SM -SN OVC010 M08/M08 A2983 RMK AO2 T10791084
KLCG 191955Z AUTO 34012G15KT 10SM OVC008 M08/M08 A2984 RMK AO2 T10801085
KLCG 191935Z AUTO 35010KT 10SM OVC008 M08/M08 A2984 RMK AO2 T10781083
KLCG 191915Z AUTO 34011KT 10SM OVC008 M08/M08 A2986 RMK AO2 T10801085
KLCG 191855Z AUTO 35010KT 10SM OVC008 M08/M08 A2984 RMK AO2 T10761081
KLCG 191835Z AUTO 34010KT 5SM -SN OVC006 M08/M08 A2985 RMK AO2 T10771082
KLCG 191815Z AUTO 35009KT 4SM BR OVC006 M08/M08 A2984 RMK AO2 T10781083
KLCG 191755Z AUTO 35009KT 3SM BR OVC006 M08/M08 A2985 RMK AO2 T10781083 11072 21080
KLCG 191735Z AUTO 35009KT 3SM BR OVC008 M07/M08 A2986 RMK AO2 T10751080
KLCG 191715Z AUTO 34013KT 4SM BR OVC008 M08/M08 A2986 RMK AO2 T10761080